Buffalo Valley, Tennessee
Current Conditions -  °F | °C
As of 3:15 AM on Monday 24 Nov 2014 (Local Time) from KSRB Reporting Station
Broken Clouds Broken Clouds  
Wind Chill: 63°   Ceiling: 3400
Heat Index: 63°   Visibility: 10mi
Dew Point: 54°   Wind: 22mph
Humidity: 72%   Direction: 220°SW
Pressure: 29.54"   Gusts: NA
Location:  36.14°N, 85.79°W
Report Text: KSRB 240915Z AUTO 22019KT 10SM BKN034 17/12 A2954 RMK
Loading
Personal Weather Stations






























Interactive Weather Map New forecast layout! Learn more

10-Day Weather Forecast

Advertisements
Track Severe Weather on mobile